Time;durP1;ratioP1;P1;durP2;ratioP2;P2;SDS_P1;SDS_P2;PMS_P1;PMS_P2;Temp;Humidity;BMP_temperature;BMP_pressure;BME280_temperature;BME280_humidity;BME280_pressure;Samples;Min_cycle;Max_cycle;Signal;HPM_P1;HPM_P2
2023/10/05 00:04:01;;;;;;;4.40;1.30;;;10.80;99.90;;;9.98;100.00;102280.41;4184888;28;20032;-78
2023/10/05 00:06:13;;;;;;;3.63;1.20;;;10.80;99.90;;;9.91;100.00;102276.59;4183545;28;20045;-78
2023/10/05 00:08:14;;;;;;;3.53;1.23;;;10.70;99.90;;;9.82;100.00;102270.22;4190495;28;20075;-78
2023/10/05 00:10:15;;;;;;;3.50;1.48;;;10.60;99.90;;;9.78;100.00;102276.66;4186834;28;20033;-78
2023/10/05 00:12:20;;;;;;;4.10;1.20;;;10.50;99.90;;;9.72;100.00;102279.72;4187975;28;20029;-77
2023/10/05 00:14:21;;;;;;;3.17;1.65;;;10.50;99.90;;;9.63;100.00;102277.78;4187794;28;20037;-78
2023/10/05 00:16:23;;;;;;;7.10;1.35;;;10.40;99.90;;;9.55;100.00;102274.88;4187967;28;20017;-78
2023/10/05 00:18:25;;;;;;;2.70;1.55;;;10.30;99.90;;;9.49;100.00;102272.69;4196873;28;20033;-78
2023/10/05 00:20:35;;;;;;;6.97;1.92;;;10.30;99.90;;;9.44;100.00;102272.16;4186573;28;20104;-78
2023/10/05 00:22:37;;;;;;;4.45;1.13;;;10.20;99.90;;;9.34;100.00;102268.53;4173180;28;20036;-78
2023/10/05 00:24:39;;;;;;;4.07;1.30;;;10.10;99.90;;;9.25;100.00;102261.28;4209640;28;20055;-77
2023/10/05 00:26:40;;;;;;;6.45;1.20;;;10.10;99.90;;;9.21;100.00;102265.06;4203106;28;20062;-78
2023/10/05 00:28:47;;;;;;;6.20;1.52;;;10.00;99.90;;;9.15;100.00;102260.25;4189682;28;20400;-78
2023/10/05 00:30:50;;;;;;;6.53;1.63;;;9.90;99.90;;;9.13;100.00;102255.09;4202454;28;20494;-78
2023/10/05 00:32:58;;;;;;;5.53;1.30;;;9.90;99.90;;;9.09;100.00;102258.06;4187365;28;20059;-78
2023/10/05 00:35:20;;;;;;;4.50;1.77;;;9.90;99.90;;;9.08;100.00;102265.09;4197306;28;20028;-78
2023/10/05 00:37:22;;;;;;;1.90;0.98;;;9.80;99.90;;;9.04;100.00;102263.66;4191338;28;20027;-78
2023/10/05 00:39:24;;;;;;;6.85;1.58;;;9.80;99.90;;;9.00;100.00;102269.22;4195994;28;20032;-78
2023/10/05 00:41:25;;;;;;;6.40;1.60;;;9.80;99.90;;;8.97;100.00;102264.19;4202717;28;20033;-78
2023/10/05 00:43:27;;;;;;;6.13;2.10;;;9.80;99.90;;;8.97;100.00;102266.81;4189146;28;20021;-78
2023/10/05 00:45:31;;;;;;;3.70;1.67;;;9.70;99.90;;;8.96;100.00;102259.91;4200512;28;20138;-78
2023/10/05 00:47:32;;;;;;;4.82;1.65;;;9.70;99.90;;;8.93;100.00;102271.44;4203780;28;20040;-78
2023/10/05 00:49:45;;;;;;;4.10;1.63;;;9.70;99.90;;;8.91;100.00;102270.72;4192092;28;20025;-78
2023/10/05 00:51:55;;;;;;;5.47;1.60;;;9.60;99.90;;;8.86;100.00;102268.44;4174186;28;20032;-78
2023/10/05 00:53:58;;;;;;;3.72;1.63;;;9.60;99.90;;;8.82;100.00;102259.06;4204012;28;20028;-78
2023/10/05 00:56:11;;;;;;;3.55;1.60;;;9.60;99.90;;;8.79;100.00;102256.66;4202672;28;20518;-78
2023/10/05 00:58:14;;;;;;;7.63;1.60;;;9.60;99.90;;;8.78;100.00;102264.66;4202483;28;20028;-78
2023/10/05 01:00:27;;;;;;;3.38;1.48;;;9.60;99.90;;;8.72;100.00;102260.66;4203916;28;20106;-78
2023/10/05 01:02:31;;;;;;;4.32;1.63;;;9.50;99.90;;;8.66;100.00;102262.88;4202523;28;20032;-78
2023/10/05 01:04:53;;;;;;;6.25;1.80;;;9.40;99.90;;;8.63;100.00;102263.91;4202676;28;20024;-78
2023/10/05 01:06:56;;;;;;;6.78;2.08;;;9.40;99.90;;;8.62;100.00;102261.41;4203844;28;20032;-78
2023/10/05 01:09:00;;;;;;;6.95;2.53;;;9.40;99.90;;;8.60;100.00;102258.88;4192945;28;20565;-77
2023/10/05 01:11:01;;;;;;;8.30;2.22;;;9.40;99.90;;;8.60;100.00;102269.38;4169479;28;20040;-78
2023/10/05 01:13:31;;;;;;;3.25;1.88;;;9.40;99.90;;;8.56;100.00;102267.94;4186042;28;20115;-78
2023/10/05 01:15:33;;;;;;;6.55;1.80;;;9.40;99.90;;;8.54;100.00;102280.31;4170047;28;20035;-78
2023/10/05 01:17:36;;;;;;;7.82;2.35;;;9.30;99.90;;;8.53;100.00;102270.78;4189121;28;20017;-78
2023/10/05 01:19:39;;;;;;;7.05;2.00;;;9.30;99.90;;;8.53;100.00;102273.41;4185287;28;20400;-78
2023/10/05 01:21:43;;;;;;;4.20;1.27;;;9.30;99.90;;;8.52;100.00;102268.22;4186198;28;20128;-78
2023/10/05 01:23:48;;;;;;;4.15;1.73;;;9.30;99.90;;;8.50;100.00;102268.34;4186689;28;20463;-78
2023/10/05 01:25:50;;;;;;;5.00;1.67;;;9.30;99.90;;;8.46;100.00;102269.50;4185536;28;20516;-78
2023/10/05 01:27:52;;;;;;;4.90;1.80;;;9.30;99.90;;;8.43;100.00;102260.97;4185647;28;20029;-78
2023/10/05 01:29:52;;;;;;;3.78;1.75;;;9.20;99.90;;;8.42;100.00;102270.69;4185622;28;20017;-78
2023/10/05 01:31:53;;;;;;;6.47;1.70;;;9.20;99.90;;;8.41;100.00;102263.72;4201808;28;20573;-78
2023/10/05 01:33:54;;;;;;;5.97;1.88;;;9.20;99.90;;;8.40;100.00;102253.31;4185368;28;20435;-78
2023/10/05 01:35:55;;;;;;;3.75;1.42;;;9.20;99.90;;;8.41;100.00;102260.25;4206813;28;20403;-78
2023/10/05 01:37:59;;;;;;;6.45;2.72;;;9.10;99.90;;;8.38;100.00;102263.09;4185426;28;20028;-78
2023/10/05 01:40:01;;;;;;;5.22;1.50;;;9.20;99.90;;;8.34;100.00;102262.44;4168990;28;20141;-78
2023/10/05 01:42:06;;;;;;;5.47;1.90;;;9.10;99.90;;;8.32;100.00;102259.09;4188198;28;20020;-78
2023/10/05 01:44:08;;;;;;;3.75;1.80;;;9.10;99.90;;;8.32;100.00;102264.34;4193861;28;20108;-78
2023/10/05 01:46:10;;;;;;;5.45;1.80;;;9.10;99.90;;;8.30;100.00;102261.00;4203169;28;20013;-78
2023/10/05 01:48:18;;;;;;;6.82;2.13;;;9.10;99.90;;;8.30;100.00;102250.47;4202606;28;20025;-78
2023/10/05 01:50:22;;;;;;;9.10;2.60;;;9.00;99.90;;;8.29;100.00;102244.38;4201614;28;20115;-78
2023/10/05 01:52:23;;;;;;;5.40;2.15;;;9.10;99.90;;;8.32;100.00;102245.94;4203081;28;20031;-78
2023/10/05 01:54:26;;;;;;;3.47;1.60;;;9.10;99.90;;;8.28;100.00;102241.84;4202932;28;20029;-78
2023/10/05 01:56:29;;;;;;;6.03;1.73;;;9.00;99.90;;;8.24;100.00;102248.22;4202849;28;20054;-78
2023/10/05 01:58:36;;;;;;;6.40;2.17;;;9.00;99.90;;;8.21;100.00;102258.97;4201403;28;20028;-78
2023/10/05 02:00:37;;;;;;;4.07;2.33;;;9.00;99.90;;;8.18;100.00;102252.09;4202862;28;20078;-78
2023/10/05 02:02:38;;;;;;;3.58;1.70;;;8.90;99.90;;;8.16;100.00;102255.78;4202495;28;20488;-78
2023/10/05 02:04:49;;;;;;;4.93;1.67;;;8.90;99.90;;;8.15;100.00;102252.31;4202552;28;20033;-78
2023/10/05 02:06:52;;;;;;;3.30;1.77;;;8.90;99.90;;;8.11;100.00;102244.75;4202708;28;20050;-78
2023/10/05 02:08:54;;;;;;;4.32;1.88;;;8.90;99.90;;;8.12;100.00;102246.44;4201637;28;20021;-78
2023/10/05 02:10:55;;;;;;;3.92;1.75;;;8.90;99.90;;;8.09;100.00;102241.38;4201471;28;20169;-78
2023/10/05 02:12:55;;;;;;;7.38;2.03;;;8.90;99.90;;;8.08;100.00;102231.81;4202761;28;20036;-78
2023/10/05 02:15:00;;;;;;;6.55;1.80;;;8.90;99.90;;;8.08;100.00;102230.03;4201574;28;20021;-78
2023/10/05 02:17:04;;;;;;;6.40;1.70;;;8.90;99.90;;;8.08;100.00;102218.66;4202313;28;20108;-78
2023/10/05 02:19:07;;;;;;;4.75;1.75;;;8.90;99.90;;;8.05;100.00;102224.13;4202292;28;20048;-78
2023/10/05 02:21:17;;;;;;;4.93;1.90;;;8.90;99.90;;;8.05;100.00;102218.88;4201222;28;20024;-78
2023/10/05 02:23:25;;;;;;;3.67;1.45;;;8.90;99.90;;;8.04;100.00;102222.44;4201162;28;20516;-78
2023/10/05 02:25:36;;;;;;;4.43;1.60;;;8.80;99.90;;;8.01;100.00;102223.50;4188219;28;20029;-78
2023/10/05 02:27:46;;;;;;;7.20;1.95;;;8.80;99.90;;;8.00;100.00;102221.81;4184905;28;20021;-78
2023/10/05 02:29:47;;;;;;;3.53;1.63;;;8.80;99.90;;;8.04;100.00;102222.44;4184934;28;20035;-78
2023/10/05 02:34:01;;;;;;;3.80;2.00;;;8.80;99.90;;;8.01;100.00;102220.88;4190175;28;20050;-78
2023/10/05 02:36:11;;;;;;;6.22;1.80;;;8.80;99.90;;;7.99;100.00;102224.53;4193189;28;20029;-78
2023/10/05 02:38:11;;;;;;;5.85;1.85;;;8.80;99.90;;;7.92;100.00;102224.09;4185724;28;20033;-78
2023/10/05 02:40:12;;;;;;;7.78;2.20;;;8.80;99.90;;;7.96;100.00;102222.13;4185375;28;20458;-78
2023/10/05 02:42:15;;;;;;;4.18;2.47;;;8.70;99.90;;;7.95;100.00;102223.91;4184503;28;20025;-77
2023/10/05 02:44:30;;;;;;;5.07;2.38;;;8.70;99.90;;;7.95;100.00;102215.16;4194328;28;20017;-78
2023/10/05 02:46:31;;;;;;;6.28;1.98;;;8.70;99.90;;;7.94;100.00;102214.34;4201074;28;20461;-78
2023/10/05 02:48:33;;;;;;;4.00;1.40;;;8.70;99.90;;;7.94;100.00;102216.13;4201945;28;20025;-78
2023/10/05 02:50:38;;;;;;;9.52;2.20;;;8.70;99.90;;;7.92;100.00;102220.63;4202095;28;20036;-78
2023/10/05 02:52:39;;;;;;;3.83;1.65;;;8.70;99.90;;;7.90;100.00;102225.16;4200719;28;20542;-78
2023/10/05 02:54:41;;;;;;;2.80;1.60;;;8.70;99.90;;;7.81;100.00;102218.75;4201814;28;20038;-78
2023/10/05 02:56:41;;;;;;;4.18;1.85;;;8.70;99.90;;;7.79;100.00;102226.69;4200876;28;20021;-78
2023/10/05 02:58:44;;;;;;;2.97;1.70;;;8.60;99.90;;;7.76;100.00;102228.72;4201960;28;20039;-78
2023/10/05 03:00:45;;;;;;;6.95;2.65;;;8.60;99.90;;;7.74;100.00;102226.19;4201975;28;20024;-78
2023/10/05 03:02:46;;;;;;;5.10;1.92;;;8.60;99.90;;;7.75;100.00;102219.13;4199106;28;20024;-78
2023/10/05 03:04:48;;;;;;;5.13;2.05;;;8.60;99.90;;;7.74;100.00;102225.31;4184171;28;20029;-78
2023/10/05 03:06:52;;;;;;;4.75;1.70;;;8.50;99.90;;;7.70;100.00;102222.09;4167680;28;20033;-78
2023/10/05 03:08:56;;;;;;;5.60;2.10;;;8.50;99.90;;;7.65;100.00;102221.53;4185523;28;20373;-78
2023/10/05 03:10:59;;;;;;;3.40;1.50;;;8.50;99.90;;;7.62;100.00;102213.00;4184035;28;20476;-78
2023/10/05 03:13:01;;;;;;;3.60;1.70;;;8.40;99.90;;;7.58;100.00;102215.00;4184128;28;20032;-78
2023/10/05 03:15:06;;;;;;;3.15;1.70;;;8.40;99.90;;;7.56;100.00;102208.16;4184270;28;20042;-78
2023/10/05 03:17:13;;;;;;;3.30;1.35;;;8.40;99.90;;;7.52;100.00;102204.91;4183810;28;20032;-78
2023/10/05 03:19:22;;;;;;;3.67;1.67;;;8.30;99.90;;;7.52;100.00;102189.16;4183860;28;20087;-78
2023/10/05 03:21:23;;;;;;;4.10;2.17;;;8.30;99.90;;;7.56;100.00;102195.03;4184087;28;20017;-78
2023/10/05 03:23:24;;;;;;;4.03;1.90;;;8.30;99.90;;;7.55;100.00;102198.63;4185112;28;20032;-78
2023/10/05 03:25:25;;;;;;;8.23;2.05;;;8.40;99.90;;;7.51;100.00;102194.50;4185076;28;20033;-78
2023/10/05 03:27:26;;;;;;;5.38;2.20;;;8.30;99.90;;;7.51;100.00;102191.88;4184110;28;20464;-78
2023/10/05 03:29:27;;;;;;;3.58;1.80;;;8.30;99.90;;;7.50;100.00;102196.28;4184077;28;20017;-78
2023/10/05 03:31:38;;;;;;;5.95;2.20;;;8.30;99.90;;;7.52;100.00;102194.41;4200599;28;20020;-78
2023/10/05 03:33:39;;;;;;;8.00;2.17;;;8.30;99.90;;;7.50;100.00;102188.41;4184757;28;20472;-78
2023/10/05 03:35:45;;;;;;;4.93;2.20;;;8.30;99.90;;;7.50;100.00;102179.69;4189014;28;20029;-78
2023/10/05 03:37:46;;;;;;;4.30;1.85;;;8.30;99.90;;;7.52;100.00;102185.69;4185185;28;20036;-78
2023/10/05 03:41:54;;;;;;;6.35;1.90;;;8.30;99.90;;;7.46;100.00;102184.31;4199740;28;20028;-78
2023/10/05 03:43:55;;;;;;;3.50;1.98;;;8.30;99.90;;;7.40;100.00;102187.34;4207582;28;20111;-78
2023/10/05 03:45:57;;;;;;;4.30;1.73;;;8.20;99.90;;;7.40;100.00;102186.50;4203768;28;20052;-79
2023/10/05 03:47:58;;;;;;;3.13;1.92;;;8.20;99.90;;;7.39;100.00;102197.91;4203452;28;20033;-78
2023/10/05 03:49:58;;;;;;;7.25;1.70;;;8.20;99.90;;;7.34;100.00;102190.38;4204805;28;20031;-79
2023/10/05 03:52:06;;;;;;;5.60;2.00;;;8.20;99.90;;;7.35;100.00;102192.03;4203771;28;20035;-78
2023/10/05 03:54:07;;;;;;;3.88;1.92;;;8.20;99.90;;;7.34;100.00;102192.13;4204860;28;20104;-79
2023/10/05 03:56:12;;;;;;;5.15;1.67;;;8.10;99.90;;;7.30;100.00;102195.91;4203618;28;20024;-79
2023/10/05 03:58:12;;;;;;;;;;;8.10;99.90;;;7.22;100.00;102201.66;4200754;28;20031;-78
2023/10/05 04:02:25;;;;;;;3.85;1.70;;;8.10;99.90;;;7.18;100.00;102200.16;4187628;28;20026;-78
2023/10/05 04:04:31;;;;;;;5.00;2.03;;;8.00;99.90;;;7.18;100.00;102200.16;4187980;28;20021;-78
2023/10/05 04:06:32;;;;;;;4.60;1.85;;;8.00;99.90;;;7.15;100.00;102208.22;4188071;28;20036;-78
2023/10/05 04:08:33;;;;;;;5.45;1.80;;;8.00;99.90;;;7.12;100.00;102206.66;4186925;28;20435;-78
2023/10/05 04:10:46;;;;;;;4.47;1.45;;;7.90;99.90;;;7.10;100.00;102200.66;4187991;28;20055;-79
2023/10/05 04:12:49;;;;;;;5.93;2.58;;;7.90;99.90;;;7.05;100.00;102202.72;4188061;28;20044;-78
2023/10/05 04:14:50;;;;;;;4.80;2.00;;;7.90;99.90;;;7.07;100.00;102213.13;4186862;28;20037;-78
2023/10/05 04:16:51;;;;;;;4.88;1.98;;;7.90;99.90;;;7.08;100.00;102215.63;4203348;28;20027;-78
2023/10/05 04:18:52;;;;;;;3.83;1.85;;;7.90;99.90;;;7.08;100.00;102212.16;4187670;28;20400;-78
2023/10/05 04:20:55;;;;;;;7.45;2.00;;;7.90;99.90;;;7.09;100.00;102206.00;4186542;28;20025;-78
2023/10/05 04:22:56;;;;;;;3.53;1.40;;;7.90;99.90;;;7.09;100.00;102206.84;4187957;28;20021;-78
2023/10/05 04:24:58;;;;;;;5.15;1.95;;;7.90;99.90;;;7.10;100.00;102202.44;4187682;28;20017;-79
2023/10/05 04:26:59;;;;;;;5.40;1.75;;;7.90;99.90;;;7.09;100.00;102203.38;4187620;28;20025;-79
2023/10/05 04:29:04;;;;;;;4.47;1.80;;;7.90;99.90;;;7.05;100.00;102200.09;4187656;28;20056;-78
2023/10/05 04:31:11;;;;;;;4.15;1.90;;;7.90;99.90;;;7.03;100.00;102199.34;4186560;28;20025;-78
2023/10/05 04:33:14;;;;;;;5.13;1.83;;;7.90;99.90;;;7.01;100.00;102203.03;4187384;28;20025;-78
2023/10/05 04:35:42;;;;;;;3.63;1.92;;;7.90;99.90;;;6.99;100.00;102194.41;4184221;28;20027;-78
2023/10/05 04:37:36;;;;;;;3.95;1.60;;;7.80;99.90;;;6.98;100.00;102200.59;4202606;28;20041;-78
2023/10/05 04:39:37;;;;;;;5.50;2.17;;;7.80;99.90;;;6.95;100.00;102190.28;4203989;28;20036;-78
2023/10/05 04:41:49;;;;;;;7.82;2.05;;;7.80;99.90;;;6.96;100.00;102192.81;4190052;28;20021;-78
2023/10/05 04:43:50;;;;;;;5.97;2.15;;;7.80;99.90;;;6.94;100.00;102201.72;4207872;28;20028;-78
2023/10/05 04:45:51;;;;;;;5.68;2.55;;;7.70;99.90;;;6.92;100.00;102198.34;4204122;28;20074;-78
2023/10/05 04:47:58;;;;;;;3.13;1.88;;;7.70;99.90;;;6.89;100.00;102198.56;4202493;28;20028;-78
2023/10/05 04:49:59;;;;;;;4.35;1.83;;;7.70;99.90;;;6.89;100.00;102206.41;4202850;28;20419;-78
2023/10/05 04:52:04;;;;;;;5.10;1.63;;;7.70;99.90;;;6.87;100.00;102201.25;4202942;28;20029;-78
2023/10/05 04:54:12;;;;;;;5.10;2.10;;;7.70;99.90;;;6.87;100.00;102203.06;4218870;28;20075;-78
2023/10/05 04:56:22;;;;;;;9.32;2.45;;;7.70;99.90;;;6.89;100.00;102211.66;4202588;28;20029;-78
2023/10/05 04:58:30;;;;;;;5.95;2.00;;;7.70;99.90;;;6.89;100.00;102223.00;4202833;28;20043;-78
2023/10/05 05:03:05;;;;;;;3.72;1.80;;;7.70;99.90;;;6.86;100.00;102217.09;4202592;28;20024;-78
2023/10/05 05:05:32;;;;;;;6.03;1.60;;;7.70;99.90;;;6.86;100.00;102222.34;4188100;28;20469;-78
2023/10/05 05:07:27;;;;;;;6.32;2.25;;;7.70;99.90;;;6.83;100.00;102220.75;4202546;28;20478;-78
2023/10/05 05:09:34;;;;;;;4.70;2.13;;;7.70;99.90;;;6.79;100.00;102218.41;4202095;28;20025;-78
2023/10/05 05:11:36;;;;;;;5.28;2.00;;;7.70;99.90;;;6.77;100.00;102221.16;4195874;28;20048;-78
2023/10/05 05:13:38;;;;;;;3.65;1.55;;;7.60;99.90;;;6.73;100.00;102213.53;4187027;28;20096;-78
2023/10/05 05:15:39;;;;;;;4.00;2.40;;;7.60;99.90;;;6.68;100.00;102209.44;4185764;28;20111;-78
2023/10/05 05:17:40;;;;;;;4.53;1.50;;;7.60;99.90;;;6.68;100.00;102217.31;4186704;28;20048;-78
2023/10/05 05:19:41;;;;;;;3.30;1.90;;;7.50;99.90;;;6.65;100.00;102212.25;4187058;28;20025;-78
2023/10/05 05:21:43;;;;;;;3.25;1.95;;;7.50;99.90;;;6.64;100.00;102215.81;4185759;28;20071;-78
2023/10/05 05:23:46;;;;;;;3.08;1.50;;;7.50;99.90;;;6.63;100.00;102218.53;4186754;28;20112;-78
2023/10/05 05:25:54;;;;;;;3.90;2.20;;;7.50;99.90;;;6.63;100.00;102227.22;4191611;28;20224;-78
2023/10/05 05:28:01;;;;;;;5.10;1.90;;;7.50;99.90;;;6.60;100.00;102229.22;4186730;28;20782;-78
2023/10/05 05:30:03;;;;;;;5.63;1.98;;;7.50;99.90;;;6.58;100.00;102226.69;4185300;28;20029;-78
2023/10/05 05:32:11;;;;;;;5.43;2.40;;;7.50;99.90;;;6.63;100.00;102227.22;4185189;28;20393;-78
2023/10/05 05:34:11;;;;;;;3.03;1.80;;;7.50;99.90;;;6.72;100.00;102217.13;4185620;28;20051;-79
2023/10/05 05:36:13;;;;;;;6.05;2.03;;;7.50;99.90;;;6.79;100.00;102226.28;4189292;28;20040;-78
2023/10/05 05:38:15;;;;;;;3.22;1.60;;;7.60;99.90;;;6.80;100.00;102225.34;4185472;28;20052;-78
2023/10/05 05:40:16;;;;;;;3.95;1.80;;;7.60;99.90;;;6.78;100.00;102228.06;4186395;28;20503;-78
2023/10/05 05:42:18;;;;;;;5.53;2.05;;;7.60;99.90;;;6.78;100.00;102227.25;4192248;28;20043;-78
2023/10/05 05:44:21;;;;;;;6.22;1.70;;;7.60;99.90;;;6.82;100.00;102229.56;4189886;28;20024;-78
2023/10/05 05:46:22;;;;;;;2.88;1.77;;;7.60;99.90;;;6.85;100.00;102237.25;4185350;28;20060;-78
2023/10/05 05:48:24;;;;;;;6.88;2.15;;;7.70;99.90;;;6.89;100.00;102235.28;4186108;28;20020;-78
2023/10/05 05:50:29;;;;;;;4.32;1.75;;;7.70;99.90;;;6.90;100.00;102240.41;4185237;28;20028;-78
2023/10/05 05:52:29;;;;;;;4.28;1.80;;;7.70;99.90;;;6.93;100.00;102239.41;4186451;28;20036;-78
2023/10/05 05:54:31;;;;;;;3.30;1.65;;;7.80;99.90;;;6.99;100.00;102231.16;4187560;28;20029;-78
2023/10/05 05:56:32;;;;;;;4.75;1.60;;;7.80;99.90;;;7.02;100.00;102223.06;4186264;28;20492;-78
2023/10/05 05:58:34;;;;;;;3.90;1.83;;;7.90;99.90;;;7.09;100.00;102226.97;4185091;28;20040;-78
2023/10/05 06:00:35;;;;;;;2.95;1.40;;;7.90;99.90;;;7.15;100.00;102227.44;4201704;28;20020;-78
2023/10/05 06:02:36;;;;;;;4.22;1.58;;;8.00;99.90;;;7.21;100.00;102228.81;4186132;28;20102;-78
2023/10/05 06:04:41;;;;;;;3.20;1.55;;;8.00;99.90;;;7.21;100.00;102234.06;4186093;28;20035;-78
2023/10/05 06:06:43;;;;;;;3.95;1.52;;;8.10;99.90;;;7.21;100.00;102249.81;4189967;28;20025;-78
2023/10/05 06:08:44;;;;;;;6.15;1.98;;;8.00;99.90;;;7.22;100.00;102248.91;4185077;28;20104;-78
2023/10/05 06:10:47;;;;;;;7.40;1.70;;;8.00;99.90;;;7.21;100.00;102245.41;4186082;28;20512;-78
2023/10/05 06:12:50;;;;;;;4.72;2.05;;;8.00;99.90;;;7.22;100.00;102235.78;4185957;28;20017;-78
2023/10/05 06:14:51;;;;;;;4.97;1.75;;;8.00;99.90;;;7.30;100.00;102240.50;4185033;28;20037;-78
2023/10/05 06:16:53;;;;;;;3.92;1.48;;;8.10;99.90;;;7.36;100.00;102240.97;4185713;28;20063;-77
2023/10/05 06:18:54;;;;;;;3.13;1.52;;;8.10;99.90;;;7.42;100.00;102253.69;4184655;28;20112;-77
2023/10/05 06:20:55;;;;;;;3.97;1.52;;;8.20;99.90;;;7.46;100.00;102244.69;4185858;28;20503;-78
2023/10/05 06:22:56;;;;;;;5.72;1.50;;;8.20;99.90;;;7.52;100.00;102244.31;4185963;28;20029;-78
2023/10/05 06:24:58;;;;;;;3.67;2.05;;;8.30;99.90;;;7.60;100.00;102259.53;4201074;28;20032;-77
2023/10/05 06:27:00;;;;;;;4.82;1.80;;;8.40;99.90;;;7.66;100.00;102260.00;4185866;28;20064;-78
2023/10/05 06:29:01;;;;;;;4.18;2.05;;;8.40;99.90;;;7.72;100.00;102253.50;4185626;28;20513;-78
2023/10/05 06:31:01;;;;;;;4.90;1.70;;;8.50;99.90;;;7.75;100.00;102259.38;4185875;28;20025;-78
2023/10/05 06:33:03;;;;;;;2.90;1.58;;;8.50;99.90;;;7.77;100.00;102262.75;4193590;28;20078;-78
2023/10/05 06:35:09;;;;;;;3.75;1.88;;;8.50;99.90;;;7.73;100.00;102250.78;4197641;28;20048;-78
2023/10/05 06:37:11;;;;;;;5.88;1.83;;;8.50;99.90;;;7.72;100.00;102250.88;4185098;28;20064;-78
2023/10/05 06:39:14;;;;;;;4.10;1.50;;;8.50;99.90;;;7.70;100.00;102245.72;4185475;28;20021;-77
2023/10/05 06:41:22;;;;;;;5.30;1.65;;;8.50;99.90;;;7.70;100.00;102256.22;4200848;28;20027;-78
2023/10/05 06:43:26;;;;;;;5.90;1.65;;;8.50;99.90;;;7.63;100.00;102254.94;4187001;28;20053;-78
2023/10/05 06:45:27;;;;;;;2.80;1.70;;;8.50;99.90;;;7.62;100.00;102262.91;4201023;28;20093;-78
2023/10/05 06:47:37;;;;;;;4.13;1.73;;;8.40;99.90;;;7.57;100.00;102255.34;4201947;28;20047;-78
2023/10/05 06:49:38;;;;;;;4.00;1.88;;;8.40;99.90;;;7.56;100.00;102248.38;4202083;28;20472;-78
2023/10/05 06:51:43;;;;;;;3.80;1.52;;;8.30;99.90;;;7.57;100.00;102255.34;4202115;28;20021;-78
2023/10/05 06:53:44;;;;;;;3.38;1.48;;;8.40;99.90;;;7.56;100.00;102253.63;4202469;28;20024;-78
2023/10/05 06:55:45;;;;;;;3.08;1.73;;;8.30;99.90;;;7.54;100.00;102255.53;4202042;28;20012;-78
2023/10/05 06:57:46;;;;;;;8.32;1.63;;;8.40;99.90;;;7.55;100.00;102259.84;4201909;28;20029;-78
2023/10/05 06:59:47;;;;;;;5.35;1.90;;;8.40;99.90;;;7.59;100.00;102265.72;4200735;28;20073;-78
2023/10/05 07:01:48;;;;;;;5.03;2.30;;;8.40;99.90;;;7.62;100.00;102262.91;4194025;28;20029;-78
2023/10/05 07:03:52;;;;;;;3.70;1.75;;;8.40;99.90;;;7.63;100.00;102264.59;4185461;28;20021;-78
2023/10/05 07:05:54;;;;;;;3.40;1.50;;;8.40;99.90;;;7.65;100.00;102268.81;4184201;28;20419;-78
2023/10/05 07:07:55;;;;;;;3.78;1.70;;;8.40;99.90;;;7.66;100.00;102265.25;4189716;28;20032;-78
2023/10/05 07:09:57;;;;;;;4.10;2.40;;;8.40;99.90;;;7.68;100.00;102258.09;4184098;28;20025;-78
2023/10/05 07:11:59;;;;;;;3.92;1.70;;;8.50;99.90;;;7.71;100.00;102262.31;4188065;28;20028;-77
2023/10/05 07:14:00;;;;;;;4.63;1.90;;;8.50;99.90;;;7.74;100.00;102273.47;4183986;28;20043;-78
2023/10/05 07:16:01;;;;;;;5.07;1.67;;;8.50;99.90;;;7.74;100.00;102276.09;4185274;28;20033;-78
2023/10/05 07:18:03;;;;;;;3.40;2.03;;;8.50;99.90;;;7.78;100.00;102284.59;4200209;28;20468;-78
2023/10/05 07:20:05;;;;;;;4.65;2.35;;;8.60;99.90;;;7.84;100.00;102286.00;4200590;28;20024;-78
2023/10/05 07:22:06;;;;;;;4.15;1.98;;;8.60;99.90;;;7.90;100.00;102289.06;4188922;28;20051;-78
2023/10/05 07:24:07;;;;;;;4.80;2.40;;;8.70;99.90;;;7.99;100.00;102284.97;4183973;28;20116;-78
2023/10/05 07:26:11;;;;;;;5.35;2.53;;;8.80;99.90;;;8.08;100.00;102281.75;4185218;28;20021;-78
2023/10/05 07:28:15;;;;;;;;;;;8.90;99.90;;;8.16;100.00;102277.66;4184340;28;20087;-78
2023/10/05 07:30:16;;;;;;;3.15;2.00;;;9.00;99.90;;;8.34;100.00;102281.69;4197167;28;19916;-78
2023/10/05 07:32:17;;;;;;;3.13;2.30;;;9.10;99.90;;;8.50;100.00;102278.88;4197294;28;20381;-80
2023/10/05 07:34:18;;;;;;;4.28;2.47;;;9.30;99.90;;;8.68;100.00;102287.28;4184414;28;20040;-80
2023/10/05 07:36:19;;;;;;;6.35;2.65;;;9.40;99.90;;;8.87;100.00;102292.94;4187209;28;20039;-79
2023/10/05 07:38:22;;;;;;;4.90;3.58;;;9.60;99.90;;;9.02;100.00;102291.03;4184541;28;20025;-79
2023/10/05 07:40:22;;;;;;;4.07;2.83;;;9.70;99.90;;;9.23;100.00;102289.50;4183345;28;20037;-80
2023/10/05 07:42:23;;;;;;;8.45;3.65;;;9.90;99.90;;;9.44;100.00;102293.22;4183902;28;20024;-79
2023/10/05 07:44:24;;;;;;;4.93;2.97;;;10.10;99.90;;;9.61;100.00;102292.00;4189238;28;20032;-80
2023/10/05 07:46:25;;;;;;;5.32;3.03;;;10.30;99.90;;;9.72;100.00;102286.78;4187546;28;20021;-80
2023/10/05 07:48:27;;;;;;;4.00;2.83;;;10.40;99.90;;;9.79;100.00;102283.63;4184010;28;20458;-80
2023/10/05 07:50:28;;;;;;;6.10;3.33;;;10.40;99.90;;;9.83;100.00;102279.78;4183628;28;20033;-80
2023/10/05 07:52:30;;;;;;;6.55;3.35;;;10.50;99.90;;;9.91;100.00;102287.97;4193400;28;20021;-80
2023/10/05 07:54:34;;;;;;;4.80;2.50;;;10.60;99.90;;;9.98;100.00;102290.97;4187736;28;20067;-80
2023/10/05 07:56:35;;;;;;;9.70;3.30;;;10.60;99.90;;;10.02;100.00;102300.34;4186321;28;20078;-79
2023/10/05 07:58:37;;;;;;;6.20;2.83;;;10.70;99.90;;;10.05;100.00;102299.25;4199504;28;20036;-80
2023/10/05 08:00:38;;;;;;;5.20;2.75;;;10.70;99.90;;;10.08;100.00;102291.13;4216782;28;20028;-80
2023/10/05 08:02:40;;;;;;;4.85;2.35;;;10.70;99.90;;;10.14;100.00;102286.28;4202849;28;20039;-80
2023/10/05 08:04:42;;;;;;;4.68;3.03;;;10.80;99.90;;;10.15;100.00;102284.47;4183356;28;20029;-80
2023/10/05 08:06:45;;;;;;;4.70;2.80;;;10.90;99.90;;;10.17;100.00;102282.56;4184195;28;20013;-80
2023/10/05 08:08:47;;;;;;;4.10;2.63;;;10.90;99.90;;;10.23;100.00;102290.00;4182737;28;20074;-79
2023/10/05 08:10:48;;;;;;;5.68;2.67;;;11.00;99.90;;;10.27;100.00;102273.00;4196714;28;21266;-79
2023/10/05 08:12:49;;;;;;;4.88;2.58;;;11.00;99.90;;;10.35;100.00;102278.53;4184231;28;20075;-79
2023/10/05 08:14:49;;;;;;;4.95;2.30;;;11.10;99.90;;;10.47;100.00;102278.44;4196472;28;20107;-80
2023/10/05 08:16:51;;;;;;;6.40;2.75;;;11.20;99.90;;;10.60;100.00;102296.81;4199998;28;20109;-80
2023/10/05 08:18:52;;;;;;;4.03;3.05;;;11.40;99.90;;;10.75;100.00;102290.31;4195238;28;20047;-80
2023/10/05 08:20:53;;;;;;;5.75;3.90;;;11.50;99.90;;;10.93;100.00;102298.63;4193648;28;20028;-79
2023/10/05 08:22:56;;;;;;;7.00;3.33;;;11.60;99.90;;;11.09;100.00;102302.56;4194235;28;20481;-80
2023/10/05 08:25:00;;;;;;;5.45;3.40;;;11.70;99.90;;;11.16;100.00;102302.94;4190512;28;20534;-80
2023/10/05 08:27:02;;;;;;;5.68;3.65;;;11.80;99.90;;;11.23;100.00;102304.09;4189026;28;20103;-80
2023/10/05 08:29:06;;;;;;;4.07;2.92;;;11.80;99.90;;;11.25;100.00;102298.72;4189152;28;20044;-80
2023/10/05 08:31:07;;;;;;;;;;;11.80;99.90;;;11.17;100.00;102303.78;4194630;28;20028;-80
2023/10/05 08:33:15;;;;;;;5.75;3.03;;;11.90;99.90;;;11.13;100.00;102304.97;4201412;28;20493;-79
2023/10/05 08:35:19;;;;;;;4.40;2.58;;;11.90;99.90;;;11.12;100.00;102306.75;4195151;28;20032;-80
2023/10/05 08:37:23;;;;;;;4.53;2.33;;;11.80;99.90;;;11.14;100.00;102306.66;4199188;28;20092;-79
2023/10/05 08:39:27;;;;;;;5.72;2.60;;;11.90;99.90;;;11.24;100.00;102312.88;4196889;28;20502;-79
2023/10/05 08:41:32;;;;;;;3.25;2.30;;;12.00;99.90;;;11.36;100.00;102306.59;4200538;28;20205;-79
2023/10/05 08:43:38;;;;;;;9.70;3.45;;;12.10;99.90;;;11.46;100.00;102300.47;4207370;28;20068;-79
2023/10/05 08:45:47;;;;;;;6.05;2.67;;;12.20;99.90;;;11.58;100.00;102296.84;4199612;28;20047;-81
2023/10/05 08:47:53;;;;;;;6.70;2.90;;;12.30;99.90;;;11.62;100.00;102305.34;4201260;28;21640;-80
2023/10/05 08:49:54;;;;;;;10.48;2.90;;;12.30;99.90;;;11.66;100.00;102297.06;4201032;28;20044;-79